createdAt,value
2022-11-19T00:01:28.387Z,14.15
2022-11-19T00:03:56.124Z,14.23
2022-11-19T00:06:27.546Z,14.35
2022-11-19T00:08:55.425Z,15.15
2022-11-19T00:11:45.949Z,14.07
2022-11-19T00:14:15.062Z,15.05
2022-11-19T00:16:44.095Z,14.85
2022-11-19T00:19:11.932Z,14.63
2022-11-19T00:21:39.279Z,15.68
2022-11-19T00:24:07.464Z,16.40
2022-11-19T00:26:34.890Z,15.55
2022-11-19T00:29:02.270Z,15.05
2022-11-19T00:31:29.866Z,14.68
2022-11-19T00:33:58.179Z,15.82
2022-11-19T00:36:25.491Z,14.90
2022-11-19T00:38:53.063Z,16.17
2022-11-19T00:41:20.495Z,14.95
2022-11-19T00:43:48.095Z,15.60
2022-11-19T00:46:18.095Z,14.27
2022-11-19T00:48:46.520Z,15.57
2022-11-19T00:51:14.555Z,15.38
2022-11-19T00:53:42.132Z,15.60
2022-11-19T00:56:11.507Z,14.70
2022-11-19T00:58:38.987Z,16.12
2022-11-19T01:01:07.302Z,14.73
2022-11-19T01:03:35.017Z,14.55
2022-11-19T01:06:02.709Z,12.37
2022-11-19T01:08:30.441Z,13.38
2022-11-19T01:11:05.204Z,14.90
2022-11-19T01:13:35.988Z,13.57
2022-11-19T01:16:05.893Z,13.27
2022-11-19T01:18:33.997Z,14.25
2022-11-19T01:21:01.441Z,16.00
2022-11-19T01:23:28.816Z,16.33
2022-11-19T01:25:56.475Z,15.65
2022-11-19T01:28:24.250Z,16.08
2022-11-19T01:30:52.593Z,15.80
2022-11-19T01:33:20.421Z,16.10
2022-11-19T01:36:01.349Z,15.77
2022-11-19T01:38:29.524Z,15.75
2022-11-19T01:40:57.626Z,15.52
2022-11-19T01:43:49.000Z,15.98
2022-11-19T01:46:24.475Z,17.12
2022-11-19T01:48:55.734Z,16.45
2022-11-19T01:51:25.161Z,16.73
2022-11-19T01:56:39.720Z,17.40
2022-11-19T01:59:10.708Z,18.08
2022-11-19T02:01:38.132Z,17.17
2022-11-19T02:04:07.350Z,17.83
2022-11-19T02:06:34.861Z,18.50
2022-11-19T02:09:02.248Z,18.75
2022-11-19T02:11:52.407Z,19.52
2022-11-19T02:14:42.541Z,17.45
2022-11-19T02:17:22.973Z,18.37
2022-11-19T02:20:29.335Z,19.70
2022-11-19T02:23:16.368Z,17.37
2022-11-19T02:26:04.691Z,18.67
2022-11-19T02:28:38.642Z,17.42
2022-11-19T02:31:10.646Z,17.62
2022-11-19T02:33:46.772Z,19.62
2022-11-19T02:36:19.426Z,18.02
2022-11-19T02:38:51.907Z,19.48
2022-11-19T02:41:44.415Z,19.40
2022-11-19T02:44:41.228Z,19.98
2022-11-19T02:47:12.811Z,20.58
2022-11-19T02:49:43.439Z,20.83
2022-11-19T02:52:12.301Z,19.77
2022-11-19T02:54:39.939Z,21.08
2022-11-19T02:57:09.791Z,18.70
2022-11-19T02:59:59.731Z,18.73
2022-11-19T03:02:53.980Z,18.90
2022-11-19T03:05:26.011Z,19.15
2022-11-19T03:07:53.745Z,20.12
2022-11-19T03:10:23.426Z,18.00
2022-11-19T03:12:55.033Z,19.98
2022-11-19T03:15:44.220Z,18.33
2022-11-19T03:18:27.770Z,17.58
2022-11-19T03:21:00.890Z,18.95
2022-11-19T03:23:53.355Z,19.10
2022-11-19T03:26:27.026Z,19.40
2022-11-19T03:28:56.442Z,17.73
2022-11-19T03:31:26.150Z,17.55
2022-11-19T03:33:57.492Z,19.83
2022-11-19T03:36:35.765Z,19.15
2022-11-19T03:39:05.919Z,18.75
2022-11-19T03:41:35.462Z,17.62
2022-11-19T03:44:08.105Z,17.12
2022-11-19T03:46:37.422Z,17.05
2022-11-19T03:49:05.951Z,17.37
2022-11-19T03:51:48.228Z,17.45
2022-11-19T03:54:16.017Z,17.55
2022-11-19T03:56:45.127Z,17.48
2022-11-19T03:59:13.008Z,17.17
2022-11-19T04:01:40.698Z,17.98
2022-11-19T04:04:27.184Z,19.35
2022-11-19T04:06:54.604Z,17.75
2022-11-19T04:09:22.450Z,18.80
2022-11-19T04:14:16.130Z,17.48
2022-11-19T04:16:43.784Z,17.83
2022-11-19T04:19:11.093Z,19.33
2022-11-19T04:21:38.394Z,19.45
2022-11-19T04:24:06.723Z,17.70
2022-11-19T04:26:34.203Z,19.17
2022-11-19T04:29:01.697Z,17.48
2022-11-19T04:31:29.413Z,17.20
2022-11-19T04:33:56.766Z,18.30
2022-11-19T04:36:24.129Z,16.17
2022-11-19T04:38:51.738Z,18.45
2022-11-19T04:41:19.052Z,17.73
2022-11-19T04:43:46.514Z,18.70
2022-11-19T04:46:14.120Z,17.67
2022-11-19T04:48:41.442Z,19.10
2022-11-19T04:51:08.783Z,18.65
2022-11-19T04:53:36.405Z,17.50
2022-11-19T04:56:03.861Z,18.08
2022-11-19T04:58:31.201Z,17.55
2022-11-19T05:00:58.848Z,16.37
2022-11-19T05:03:28.546Z,17.67
2022-11-19T05:05:56.193Z,17.58
2022-11-19T05:08:24.123Z,18.50
2022-11-19T05:10:51.680Z,17.37
2022-11-19T05:13:19.000Z,16.95
2022-11-19T05:15:46.617Z,16.65
2022-11-19T05:18:14.134Z,15.88
2022-11-19T05:20:41.492Z,17.75
2022-11-19T05:23:09.135Z,17.15
2022-11-19T05:25:36.463Z,16.75
2022-11-19T05:28:03.870Z,17.00
2022-11-19T05:30:31.483Z,15.60
2022-11-19T05:32:58.779Z,16.17
2022-11-19T05:35:26.275Z,17.17
2022-11-19T05:37:53.897Z,16.25
2022-11-19T05:40:21.206Z,16.27
2022-11-19T05:42:48.555Z,17.30
2022-11-19T05:45:16.241Z,17.75
2022-11-19T05:47:48.435Z,18.33
2022-11-19T05:50:16.503Z,19.35
2022-11-19T05:52:43.847Z,18.20
2022-11-19T05:55:11.244Z,18.40
2022-11-19T05:57:38.816Z,19.08
2022-11-19T06:00:06.708Z,18.10
2022-11-19T06:02:40.061Z,19.77
2022-11-19T06:05:08.248Z,18.52
2022-11-19T06:07:35.809Z,19.95
2022-11-19T06:10:03.524Z,19.92
2022-11-19T06:12:31.658Z,18.77
2022-11-19T06:14:58.984Z,18.50
2022-11-19T06:17:26.362Z,19.52
2022-11-19T06:19:53.952Z,18.52
2022-11-19T06:22:21.327Z,18.65
2022-11-19T06:24:48.649Z,17.55
2022-11-19T06:27:16.252Z,18.48
2022-11-19T06:29:43.782Z,17.40
2022-11-19T06:32:11.622Z,18.17
2022-11-19T06:34:39.202Z,18.58
2022-11-19T06:37:06.538Z,17.37
2022-11-19T06:39:33.930Z,17.70
2022-11-19T06:42:21.841Z,18.80
2022-11-19T06:44:49.192Z,19.95
2022-11-19T06:47:16.753Z,20.45
2022-11-19T06:49:44.142Z,19.48
2022-11-19T06:52:11.462Z,18.73
2022-11-19T06:54:42.982Z,18.65
2022-11-19T06:57:10.683Z,18.67
2022-11-19T06:59:39.343Z,19.67
2022-11-19T07:02:07.685Z,19.70
2022-11-19T07:04:35.076Z,19.25
2022-11-19T07:07:02.618Z,20.65
2022-11-19T07:09:30.520Z,21.12
2022-11-19T07:11:58.092Z,17.80
2022-11-19T07:14:25.469Z,19.00
2022-11-19T07:16:53.057Z,18.45
2022-11-19T07:19:20.544Z,18.12
2022-11-19T07:21:48.161Z,17.42
2022-11-19T07:24:17.778Z,19.67
2022-11-19T07:26:45.125Z,18.50
2022-11-19T07:29:14.407Z,20.83
2022-11-19T07:31:42.527Z,20.23
2022-11-19T07:34:10.953Z,21.85
2022-11-19T07:36:38.389Z,21.60
2022-11-19T07:39:06.136Z,21.75
2022-11-19T07:41:52.500Z,21.83
2022-11-19T07:44:20.121Z,21.85
2022-11-19T07:46:47.595Z,21.87
2022-11-19T07:49:15.180Z,19.65
2022-11-19T07:51:43.601Z,20.55
2022-11-19T07:54:12.324Z,21.05
2022-11-19T07:56:39.997Z,21.12
2022-11-19T07:59:07.598Z,21.12
2022-11-19T08:01:35.026Z,21.08
2022-11-19T08:04:04.327Z,20.20
2022-11-19T08:06:34.348Z,22.23
2022-11-19T08:09:02.798Z,21.30
2022-11-19T08:11:30.790Z,19.08
2022-11-19T08:14:01.227Z,19.40
2022-11-19T08:16:47.898Z,19.35
2022-11-19T08:19:16.265Z,17.52
2022-11-19T08:21:45.818Z,17.67
2022-11-19T08:24:14.057Z,16.92
2022-11-19T08:26:42.409Z,17.55
2022-11-19T08:29:15.799Z,17.02
2022-11-19T08:31:45.931Z,16.20
2022-11-19T08:34:13.646Z,13.13
2022-11-19T08:36:41.190Z,16.92
2022-11-19T08:39:08.991Z,14.70
2022-11-19T08:41:55.197Z,14.32
2022-11-19T08:44:23.062Z,16.20
2022-11-19T08:46:50.709Z,18.70
2022-11-19T08:49:18.120Z,18.50
2022-11-19T08:51:45.995Z,18.17
2022-11-19T08:54:13.462Z,16.27
2022-11-19T08:56:40.831Z,17.08
2022-11-19T08:59:08.456Z,16.25
2022-11-19T09:01:35.775Z,15.70
2022-11-19T09:04:03.104Z,17.55
2022-11-19T09:06:30.900Z,17.77
2022-11-19T09:08:58.447Z,22.35
2022-11-19T09:11:25.867Z,17.20
2022-11-19T09:13:53.525Z,17.25
2022-11-19T09:16:20.831Z,16.35
2022-11-19T09:18:48.215Z,17.48
2022-11-19T09:21:15.859Z,17.37
2022-11-19T09:23:45.912Z,18.87
2022-11-19T09:26:15.959Z,16.42
2022-11-19T09:28:45.237Z,15.88
2022-11-19T09:31:18.447Z,16.35
2022-11-19T09:33:51.516Z,17.40
2022-11-19T09:36:19.615Z,16.58
2022-11-19T09:38:47.977Z,17.40
2022-11-19T09:41:17.958Z,17.02
2022-11-19T09:44:12.866Z,17.80
2022-11-19T09:46:58.872Z,18.05
2022-11-19T09:49:36.294Z,17.10
2022-11-19T09:52:07.053Z,16.52
2022-11-19T09:54:37.819Z,16.33
2022-11-19T09:57:10.275Z,15.93
2022-11-19T09:59:41.444Z,16.27
2022-11-19T10:02:20.680Z,16.27
2022-11-19T10:04:49.916Z,17.92
2022-11-19T10:07:28.701Z,15.45
2022-11-19T10:10:12.874Z,17.12
2022-11-19T10:13:17.082Z,16.40
2022-11-19T10:16:12.582Z,16.30
2022-11-19T10:19:28.924Z,17.27
2022-11-19T10:22:11.413Z,17.40
2022-11-19T10:25:12.228Z,16.10
2022-11-19T10:27:51.684Z,16.75
2022-11-19T10:30:21.645Z,18.05
2022-11-19T10:33:00.778Z,17.37
2022-11-19T10:35:37.222Z,16.65
2022-11-19T10:38:19.038Z,18.92
2022-11-19T10:40:59.192Z,17.42
2022-11-19T10:43:38.429Z,16.95
2022-11-19T10:46:09.916Z,18.35
2022-11-19T10:48:43.425Z,18.17
2022-11-19T10:51:21.605Z,19.50
2022-11-19T10:53:51.049Z,18.45
2022-11-19T10:56:21.768Z,17.48
2022-11-19T10:58:53.268Z,17.85
2022-11-19T11:01:32.970Z,19.37
2022-11-19T11:04:05.622Z,16.90
2022-11-19T11:07:00.141Z,17.48
2022-11-19T11:09:35.119Z,18.65
2022-11-19T11:12:42.346Z,18.35
2022-11-19T11:15:18.695Z,18.00
2022-11-19T11:17:49.483Z,19.55
2022-11-19T11:20:20.281Z,20.25
2022-11-19T11:22:50.078Z,17.83
2022-11-19T11:25:28.234Z,18.77
2022-11-19T11:28:14.597Z,19.92
2022-11-19T11:30:52.343Z,21.05
2022-11-19T11:33:38.549Z,20.20
2022-11-19T11:36:07.630Z,20.25
2022-11-19T11:38:52.302Z,24.37
2022-11-19T11:44:15.395Z,18.42
2022-11-19T11:46:48.992Z,18.98
2022-11-19T11:49:39.327Z,19.27
2022-11-19T11:52:09.909Z,18.75
2022-11-19T11:54:38.861Z,18.52
2022-11-19T11:57:18.111Z,18.90
2022-11-19T11:59:46.177Z,19.02
2022-11-19T12:02:21.445Z,19.02
2022-11-19T12:04:51.077Z,21.50
2022-11-19T12:07:40.861Z,21.12
2022-11-19T12:10:23.935Z,19.80
2022-11-19T12:13:23.640Z,21.08
2022-11-19T12:16:09.967Z,19.65
2022-11-19T12:18:47.319Z,20.83
2022-11-19T12:21:33.641Z,19.23
2022-11-19T12:24:32.498Z,17.87
2022-11-19T12:27:20.366Z,19.05
2022-11-19T12:30:18.601Z,17.77
2022-11-19T12:33:28.637Z,17.70
2022-11-19T12:36:11.621Z,17.62
2022-11-19T12:39:00.568Z,19.35
2022-11-19T12:47:06.462Z,17.12
2022-11-19T12:49:52.754Z,18.70
2022-11-19T12:52:41.636Z,18.55
2022-11-19T12:55:18.055Z,17.42
2022-11-19T12:58:25.575Z,18.50
2022-11-19T13:01:15.615Z,17.98
2022-11-19T13:03:50.292Z,18.92
2022-11-19T13:06:22.788Z,18.65
2022-11-19T13:08:54.473Z,18.60
2022-11-19T13:11:49.121Z,17.87
2022-11-19T13:14:35.891Z,19.73
2022-11-19T13:17:05.742Z,20.17
2022-11-19T13:19:35.819Z,19.55
2022-11-19T13:22:27.878Z,19.17
2022-11-19T13:25:25.604Z,18.95
2022-11-19T13:27:55.094Z,18.80
2022-11-19T13:30:26.811Z,19.98
2022-11-19T13:33:12.764Z,19.08
2022-11-19T13:35:47.546Z,18.20
2022-11-19T13:38:28.564Z,19.58
2022-11-19T13:41:04.710Z,19.10
2022-11-19T13:43:51.038Z,20.25
2022-11-19T13:46:25.092Z,20.80
2022-11-19T13:49:13.151Z,20.02
2022-11-19T13:51:53.546Z,21.85
2022-11-19T13:54:26.789Z,20.35
2022-11-19T13:56:56.815Z,19.42
2022-11-19T13:59:25.619Z,21.00
2022-11-19T14:02:04.997Z,19.35
2022-11-19T14:04:52.411Z,21.52
2022-11-19T14:07:50.117Z,20.95
2022-11-19T14:10:38.467Z,20.45
2022-11-19T14:13:08.649Z,21.10
2022-11-19T14:16:03.925Z,21.33
2022-11-19T14:18:54.850Z,21.48
2022-11-19T14:21:44.373Z,24.67
2022-11-19T14:25:06.149Z,22.75
2022-11-19T14:27:35.023Z,21.15
2022-11-19T14:30:09.634Z,22.42
2022-11-19T14:32:46.967Z,22.13
2022-11-19T14:35:23.586Z,22.08
2022-11-19T14:37:57.139Z,21.42
2022-11-19T14:40:32.586Z,21.20
2022-11-19T14:43:19.207Z,23.45
2022-11-19T14:46:03.101Z,22.50
2022-11-19T14:48:39.630Z,21.37
2022-11-19T14:51:10.798Z,25.20
2022-11-19T14:54:04.459Z,25.98
2022-11-19T14:56:33.273Z,25.20
2022-11-19T14:59:15.947Z,25.27
2022-11-19T15:01:57.398Z,26.70
2022-11-19T15:04:35.188Z,30.67
2022-11-19T15:07:12.471Z,32.67
2022-11-19T15:09:52.888Z,30.83
2022-11-19T15:12:21.778Z,33.38
2022-11-19T15:15:07.666Z,33.17
2022-11-19T15:17:35.654Z,27.25
2022-11-19T15:20:29.557Z,28.27
2022-11-19T15:23:38.377Z,31.30
2022-11-19T15:26:38.773Z,29.23
2022-11-19T15:29:38.088Z,24.83
2022-11-19T15:32:24.356Z,22.60
2022-11-19T15:35:11.502Z,22.30
2022-11-19T15:37:44.588Z,22.40
2022-11-19T15:40:15.911Z,20.65
2022-11-19T15:42:50.112Z,20.23
2022-11-19T15:45:21.187Z,20.48
2022-11-19T15:48:19.368Z,22.98
2022-11-19T15:50:47.193Z,22.55
2022-11-19T15:53:17.407Z,20.90
2022-11-19T15:55:51.736Z,24.35
2022-11-19T15:58:22.343Z,24.37
2022-11-19T16:00:50.705Z,25.92
2022-11-19T16:03:18.825Z,20.20
2022-11-19T16:05:59.366Z,19.20
2022-11-19T16:08:28.535Z,20.98
2022-11-19T16:11:20.164Z,22.02
2022-11-19T16:14:11.474Z,20.23
2022-11-19T16:16:58.551Z,19.02
2022-11-19T16:19:26.251Z,41.58
2022-11-19T16:22:03.140Z,23.73
2022-11-19T16:24:49.686Z,19.37
2022-11-19T16:27:23.269Z,17.77
2022-11-19T16:29:51.052Z,16.67
2022-11-19T16:32:20.042Z,17.37
2022-11-19T16:34:47.526Z,16.27
2022-11-19T16:37:17.902Z,17.30
2022-11-19T16:39:50.719Z,15.70
2022-11-19T16:42:23.093Z,16.17
2022-11-19T16:44:54.124Z,18.20
2022-11-19T16:47:34.582Z,17.90
2022-11-19T16:50:24.858Z,18.27
2022-11-19T16:52:52.473Z,16.12
2022-11-19T16:55:19.882Z,17.65
2022-11-19T16:57:49.029Z,17.60
2022-11-19T17:00:22.773Z,17.50
2022-11-19T17:02:50.985Z,18.77
2022-11-19T17:05:20.733Z,18.50
2022-11-19T17:07:49.963Z,17.65
2022-11-19T17:10:30.495Z,18.08
2022-11-19T17:13:04.134Z,19.12
2022-11-19T17:15:36.902Z,18.65
2022-11-19T17:18:22.786Z,18.00
2022-11-19T17:20:52.886Z,17.25
2022-11-19T17:23:25.593Z,17.83
2022-11-19T17:25:56.227Z,16.90
2022-11-19T17:28:38.344Z,18.08
2022-11-19T17:31:14.976Z,18.15
2022-11-19T17:33:54.668Z,17.52
2022-11-19T17:36:25.842Z,16.83
2022-11-19T17:38:53.996Z,17.30
2022-11-19T17:41:42.194Z,16.20
2022-11-19T17:44:31.786Z,17.62
2022-11-19T17:46:59.228Z,20.35
2022-11-19T17:49:26.939Z,20.73
2022-11-19T17:51:55.454Z,18.45
2022-11-19T17:54:24.132Z,23.27
2022-11-19T17:56:52.068Z,28.23
2022-11-19T17:59:19.412Z,19.92
2022-11-19T18:01:48.031Z,22.13
2022-11-19T18:04:15.902Z,22.73
2022-11-19T18:06:44.345Z,17.62
2022-11-19T18:09:11.902Z,16.60
2022-11-19T18:11:40.414Z,15.00
2022-11-19T18:14:10.148Z,14.80
2022-11-19T18:16:39.895Z,14.38
2022-11-19T18:19:22.653Z,15.32
2022-11-19T18:21:53.273Z,15.73
2022-11-19T18:24:21.321Z,14.38
2022-11-19T18:26:49.819Z,14.32
2022-11-19T18:29:17.812Z,14.50
2022-11-19T18:31:48.456Z,15.05
2022-11-19T18:34:21.378Z,14.25
2022-11-19T18:36:49.919Z,13.35
2022-11-19T18:39:18.292Z,15.50
2022-11-19T18:41:45.740Z,15.73
2022-11-19T18:44:34.246Z,15.13
2022-11-19T18:47:13.203Z,17.23
2022-11-19T18:49:42.453Z,15.90
2022-11-19T18:52:13.429Z,14.52
2022-11-19T18:54:41.469Z,16.23
2022-11-19T18:57:09.859Z,25.75
2022-11-19T18:59:37.759Z,28.15
2022-11-19T19:02:07.511Z,23.12
2022-11-19T19:04:34.976Z,30.27
2022-11-19T19:07:02.812Z,25.37
2022-11-19T19:09:30.866Z,22.70
2022-11-19T19:12:18.343Z,23.12
2022-11-19T19:14:48.570Z,32.78
2022-11-19T19:17:16.626Z,37.92
2022-11-19T19:19:44.804Z,29.17
2022-11-19T19:22:12.844Z,21.92
2022-11-19T19:24:40.318Z,20.23
2022-11-19T19:27:08.065Z,22.08
2022-11-19T19:29:36.081Z,20.27
2022-11-19T19:32:04.066Z,19.27
2022-11-19T19:34:32.988Z,17.65
2022-11-19T19:37:01.223Z,19.65
2022-11-19T19:39:28.934Z,18.67
2022-11-19T19:41:56.936Z,17.52
2022-11-19T19:44:26.132Z,16.60
2022-11-19T19:46:54.075Z,16.83
2022-11-19T19:49:22.525Z,17.67
2022-11-19T19:51:51.348Z,19.50
2022-11-19T19:54:19.340Z,17.80
2022-11-19T19:56:48.565Z,17.45
2022-11-19T19:59:18.841Z,17.20
2022-11-19T20:01:47.776Z,15.93
2022-11-19T20:04:16.104Z,14.77
2022-11-19T20:06:46.776Z,17.30
2022-11-19T20:09:14.787Z,16.83
2022-11-19T20:11:43.090Z,15.00
2022-11-19T20:14:11.385Z,16.27
2022-11-19T20:16:41.089Z,16.62
2022-11-19T20:19:12.926Z,16.25
2022-11-19T20:21:41.009Z,17.45
2022-11-19T20:24:12.427Z,16.65
2022-11-19T20:26:41.015Z,15.88
2022-11-19T20:29:12.356Z,14.77
2022-11-19T20:31:41.772Z,14.80
2022-11-19T20:34:12.488Z,16.52
2022-11-19T20:36:40.571Z,15.40
2022-11-19T20:39:08.781Z,15.35
2022-11-19T20:41:55.031Z,14.60
2022-11-19T20:44:24.023Z,15.38
2022-11-19T20:46:59.696Z,17.70
2022-11-19T20:49:29.735Z,19.73
2022-11-19T20:51:58.028Z,17.80
2022-11-19T20:54:26.552Z,17.37
2022-11-19T20:56:55.044Z,16.58
2022-11-19T20:59:24.297Z,15.93
2022-11-19T21:01:53.315Z,15.02
2022-11-19T21:04:22.267Z,16.00
2022-11-19T21:06:50.693Z,16.92
2022-11-19T21:09:20.236Z,15.05
2022-11-19T21:11:48.011Z,16.17
2022-11-19T21:14:17.836Z,17.30
2022-11-19T21:16:45.449Z,18.98
2022-11-19T21:19:13.553Z,17.02
2022-11-19T21:21:41.574Z,18.62
2022-11-19T21:24:09.582Z,17.95
2022-11-19T21:26:37.267Z,17.00
2022-11-19T21:29:05.144Z,16.35
2022-11-19T21:31:46.402Z,14.63
2022-11-19T21:34:18.070Z,15.90
2022-11-19T21:36:46.284Z,14.87
2022-11-19T21:39:16.377Z,14.32
2022-11-19T21:41:44.190Z,13.65
2022-11-19T21:44:13.327Z,14.23
2022-11-19T21:46:44.407Z,13.95
2022-11-19T21:49:11.748Z,13.15
2022-11-19T21:51:39.749Z,14.27
2022-11-19T21:54:08.188Z,15.05
2022-11-19T21:56:38.867Z,15.43
2022-11-19T21:59:09.568Z,15.32
2022-11-19T22:01:37.674Z,14.77
2022-11-19T22:04:05.353Z,14.32
2022-11-19T22:06:32.762Z,14.57
2022-11-19T22:09:00.141Z,14.25
2022-11-19T22:11:31.058Z,13.38
2022-11-19T22:14:01.773Z,13.15
2022-11-19T22:16:30.818Z,13.05
2022-11-19T22:18:58.217Z,13.18
2022-11-19T22:21:26.026Z,13.00
2022-11-19T22:26:35.159Z,11.35
2022-11-19T22:29:02.898Z,11.75
2022-11-19T22:31:30.230Z,12.27
2022-11-19T22:33:57.554Z,12.55
2022-11-19T22:36:25.315Z,16.55
2022-11-19T22:38:52.836Z,13.57
2022-11-19T22:41:21.262Z,16.27
2022-11-19T22:43:49.286Z,11.73
2022-11-19T22:46:17.741Z,14.30
2022-11-19T22:48:45.058Z,14.87
2022-11-19T22:51:16.791Z,13.43
2022-11-19T22:53:45.013Z,12.50
2022-11-19T22:56:14.731Z,12.35
2022-11-19T22:58:42.384Z,10.88
2022-11-19T23:01:28.773Z,11.98
2022-11-19T23:03:59.470Z,12.40
2022-11-19T23:06:26.881Z,12.25
2022-11-19T23:08:54.887Z,13.13
2022-11-19T23:11:42.325Z,11.73
2022-11-19T23:14:11.837Z,10.35
2022-11-19T23:16:40.395Z,10.77
2022-11-19T23:19:08.971Z,10.73
2022-11-19T23:21:36.688Z,10.68
2022-11-19T23:24:04.912Z,9.77
2022-11-19T23:26:32.995Z,10.90
2022-11-19T23:29:00.725Z,11.00
2022-11-19T23:31:31.150Z,10.65
2022-11-19T23:33:59.636Z,13.15
2022-11-19T23:36:38.396Z,10.23
2022-11-19T23:39:06.517Z,10.38
2022-11-19T23:41:34.324Z,9.73
2022-11-19T23:44:01.880Z,10.40
2022-11-19T23:46:32.886Z,10.93
2022-11-19T23:49:00.913Z,10.43
2022-11-19T23:51:31.233Z,10.52
2022-11-19T23:53:58.921Z,10.73
2022-11-19T23:56:27.263Z,10.07
2022-11-19T23:58:54.857Z,10.00
